ZRH weather

Z├╝rich Airport
Zurich, Canton of Zurich, Switzerland

Public forecast

Using degrees Celsius for public forecast. Weather courtesy of forecast.io.

METAR (pilot weather report)

Retrieved 2018/04/22 04:20 UTC (0 seconds ago):

LSZH 220420Z VRB01KT CAVOK 08/07 Q1018 NOSIG

TAF (pilot weather forecast)

Retrieved 2018/04/22 03:37 UTC (37 minutes ago):

TAF LSZH 220225Z 2203/2309 VRB03KT CAVOK TX27/2215Z TN09/2205Z TN11/2306Z PROB40 2213/2217 30007KT 9999 FEW075 BECMG 2307/2309 9999 BKN070